createdAt,value
2023-01-18T00:01:46.510Z,1.40
2023-01-18T00:04:13.571Z,1.30
2023-01-18T00:06:41.235Z,1.30
2023-01-18T00:09:08.228Z,1.30
2023-01-18T00:11:35.186Z,1.30
2023-01-18T00:14:02.884Z,1.40
2023-01-18T00:16:32.889Z,1.30
2023-01-18T00:18:59.977Z,1.30
2023-01-18T00:21:27.122Z,1.30
2023-01-18T00:23:57.318Z,1.30
2023-01-18T00:26:24.312Z,1.30
2023-01-18T00:28:51.281Z,1.30
2023-01-18T00:31:19.509Z,1.30
2023-01-18T00:33:47.054Z,1.30
2023-01-18T00:36:14.230Z,1.30
2023-01-18T00:38:41.249Z,1.20
2023-01-18T00:41:08.261Z,1.20
2023-01-18T00:43:41.335Z,1.20
2023-01-18T00:46:09.244Z,1.20
2023-01-18T00:48:36.584Z,1.10
2023-01-18T00:51:03.664Z,1.10
2023-01-18T00:53:30.691Z,1.00
2023-01-18T00:55:57.657Z,0.90
2023-01-18T00:58:24.745Z,1.00
2023-01-18T01:00:52.610Z,0.90
2023-01-18T01:03:20.159Z,0.90
2023-01-18T01:06:06.108Z,0.90
2023-01-18T01:08:33.169Z,0.90
2023-01-18T01:11:18.482Z,0.80
2023-01-18T01:14:04.235Z,0.80
2023-01-18T01:16:50.088Z,0.80
2023-01-18T01:19:35.884Z,0.70
2023-01-18T01:22:21.706Z,0.70
2023-01-18T01:25:07.702Z,0.70
2023-01-18T01:27:34.688Z,0.60
2023-01-18T01:30:03.993Z,0.60
2023-01-18T01:32:30.978Z,0.60
2023-01-18T01:34:57.936Z,0.50
2023-01-18T01:37:25.006Z,0.50
2023-01-18T01:39:51.962Z,0.50
2023-01-18T01:42:18.967Z,0.50
2023-01-18T01:44:47.129Z,0.40
2023-01-18T01:47:16.298Z,0.40
2023-01-18T01:49:45.500Z,0.40
2023-01-18T01:52:15.286Z,0.30
2023-01-18T01:54:43.921Z,0.30
2023-01-18T01:57:12.608Z,0.30
2023-01-18T01:59:42.192Z,0.30
2023-01-18T02:02:09.214Z,0.30
2023-01-18T02:04:36.231Z,0.30
2023-01-18T02:07:03.185Z,0.30
2023-01-18T02:09:30.153Z,0.30
2023-01-18T02:11:57.182Z,0.30
2023-01-18T02:14:24.919Z,0.30
2023-01-18T02:16:55.068Z,0.30
2023-01-18T02:19:37.369Z,0.30
2023-01-18T02:22:05.206Z,0.30
2023-01-18T02:24:32.225Z,0.40
2023-01-18T02:27:06.220Z,0.30
2023-01-18T02:30:02.574Z,0.40
2023-01-18T02:32:37.254Z,0.50
2023-01-18T02:35:09.384Z,0.60
2023-01-18T02:38:02.613Z,0.60
2023-01-18T02:40:41.836Z,0.70
2023-01-18T02:43:27.517Z,0.70
2023-01-18T02:46:13.353Z,0.70
2023-01-18T02:48:41.359Z,0.80
2023-01-18T02:51:08.318Z,0.80
2023-01-18T02:53:37.212Z,0.80
2023-01-18T02:56:17.923Z,0.80
2023-01-18T02:58:48.825Z,0.80
2023-01-18T03:01:34.490Z,0.80
2023-01-18T03:04:04.680Z,0.80
2023-01-18T03:06:31.654Z,0.80
2023-01-18T03:08:58.725Z,0.80
2023-01-18T03:11:32.961Z,0.80
2023-01-18T03:13:59.902Z,0.80
2023-01-18T03:16:31.351Z,0.80
2023-01-18T03:19:05.076Z,0.80
2023-01-18T03:21:32.024Z,0.80
2023-01-18T03:23:59.871Z,0.90
2023-01-18T03:26:26.890Z,0.90
2023-01-18T03:29:12.612Z,0.90
2023-01-18T03:32:07.505Z,1.00
2023-01-18T03:34:51.705Z,1.00
2023-01-18T03:37:40.643Z,1.00
2023-01-18T03:40:10.847Z,1.10
2023-01-18T03:42:45.312Z,1.10
2023-01-18T03:45:13.794Z,1.10
2023-01-18T03:47:40.771Z,1.10
2023-01-18T03:50:07.927Z,1.10
2023-01-18T03:52:41.653Z,1.10
2023-01-18T03:55:14.213Z,1.10
2023-01-18T03:57:53.170Z,1.10
2023-01-18T04:00:20.598Z,1.10
2023-01-18T04:02:48.137Z,1.10
2023-01-18T04:05:15.225Z,1.10
2023-01-18T04:07:42.366Z,1.10
2023-01-18T04:10:09.993Z,1.10
2023-01-18T04:12:37.057Z,1.10
2023-01-18T04:15:04.240Z,1.10
2023-01-18T04:17:31.203Z,1.10
2023-01-18T04:19:58.158Z,1.10
2023-01-18T04:22:25.279Z,1.10
2023-01-18T04:24:52.836Z,1.20
2023-01-18T04:27:19.826Z,1.20
2023-01-18T04:29:47.055Z,1.20
2023-01-18T04:32:14.058Z,1.20
2023-01-18T04:34:41.088Z,1.10
2023-01-18T04:37:08.059Z,1.10
2023-01-18T04:39:35.049Z,1.10
2023-01-18T04:42:02.027Z,1.20
2023-01-18T04:44:29.008Z,1.20
2023-01-18T04:46:56.087Z,1.20
2023-01-18T04:49:24.029Z,1.20
2023-01-18T04:51:50.995Z,1.20
2023-01-18T04:54:19.080Z,1.20
2023-01-18T04:56:46.102Z,1.20
2023-01-18T04:59:16.503Z,1.20
2023-01-18T05:01:43.567Z,1.10
2023-01-18T05:04:10.743Z,1.10
2023-01-18T05:06:37.745Z,1.10
2023-01-18T05:09:04.733Z,1.10
2023-01-18T05:11:31.686Z,1.10
2023-01-18T05:13:58.697Z,1.10
2023-01-18T05:16:25.709Z,1.10
2023-01-18T05:18:52.696Z,1.10
2023-01-18T05:21:19.721Z,1.20
2023-01-18T05:23:46.693Z,1.20
2023-01-18T05:26:23.107Z,1.20
2023-01-18T05:28:50.379Z,1.20
2023-01-18T05:31:18.690Z,1.20
2023-01-18T05:33:45.838Z,1.30
2023-01-18T05:36:12.837Z,1.30
2023-01-18T05:38:39.894Z,1.30
2023-01-18T05:41:06.889Z,1.30
2023-01-18T05:43:35.611Z,1.30
2023-01-18T05:46:02.779Z,1.30
2023-01-18T05:48:30.056Z,1.30
2023-01-18T05:50:57.124Z,1.40
2023-01-18T05:53:24.132Z,1.30
2023-01-18T05:55:55.176Z,1.40
2023-01-18T05:58:22.231Z,1.30
2023-01-18T06:00:49.292Z,1.30
2023-01-18T06:03:16.288Z,1.30
2023-01-18T06:05:43.250Z,1.30
2023-01-18T06:08:10.203Z,1.30
2023-01-18T06:10:37.161Z,1.30
2023-01-18T06:13:05.202Z,1.30
2023-01-18T06:15:32.429Z,1.40
2023-01-18T06:18:00.133Z,1.40
2023-01-18T06:20:30.282Z,1.40
2023-01-18T06:22:58.121Z,1.40
2023-01-18T06:25:25.445Z,1.40
2023-01-18T06:27:52.511Z,1.40
2023-01-18T06:30:19.682Z,1.40
2023-01-18T06:32:49.081Z,1.40
2023-01-18T06:35:16.102Z,1.40
2023-01-18T06:37:44.280Z,1.50
2023-01-18T06:40:11.339Z,1.40
2023-01-18T06:42:38.854Z,1.50
2023-01-18T06:45:05.994Z,1.50
2023-01-18T06:47:32.989Z,1.60
2023-01-18T06:50:00.019Z,1.60
2023-01-18T06:52:27.005Z,1.60
2023-01-18T06:54:54.194Z,1.50
2023-01-18T06:57:21.163Z,1.50
2023-01-18T06:59:48.147Z,1.50
2023-01-18T07:02:16.541Z,1.50
2023-01-18T07:04:45.237Z,1.50
2023-01-18T07:07:12.563Z,1.50
2023-01-18T07:09:39.535Z,1.50
2023-01-18T07:12:06.498Z,1.50
2023-01-18T07:14:34.099Z,1.50
2023-01-18T07:17:01.081Z,1.50
2023-01-18T07:19:28.328Z,1.50
2023-01-18T07:21:55.346Z,1.50
2023-01-18T07:24:22.391Z,1.60
2023-01-18T07:26:49.478Z,1.60
2023-01-18T07:29:16.576Z,1.60
2023-01-18T07:31:43.565Z,1.60
2023-01-18T07:34:10.910Z,1.60
2023-01-18T07:36:41.852Z,1.70
2023-01-18T07:39:09.158Z,1.70
2023-01-18T07:41:36.212Z,1.80
2023-01-18T07:44:03.312Z,1.80
2023-01-18T07:46:30.341Z,1.80
2023-01-18T07:48:57.374Z,1.80
2023-01-18T07:51:24.539Z,1.90
2023-01-18T07:53:54.889Z,1.90
2023-01-18T07:56:22.854Z,1.90
2023-01-18T07:58:49.915Z,2.00
2023-01-18T08:01:20.712Z,2.00
2023-01-18T08:03:47.977Z,2.00
2023-01-18T08:06:16.934Z,2.10
2023-01-18T08:08:43.921Z,2.10
2023-01-18T08:11:11.107Z,2.20
2023-01-18T08:13:38.116Z,2.20
2023-01-18T08:16:05.917Z,2.30
2023-01-18T08:18:33.140Z,2.30
2023-01-18T08:21:00.123Z,2.40
2023-01-18T08:23:27.112Z,2.40
2023-01-18T08:25:55.321Z,2.50
2023-01-18T08:28:22.318Z,2.50
2023-01-18T08:30:49.361Z,2.50
2023-01-18T08:33:16.419Z,2.50
2023-01-18T08:35:44.295Z,2.50
2023-01-18T08:38:11.809Z,2.50
2023-01-18T08:40:38.795Z,2.50
2023-01-18T08:43:05.829Z,2.50
2023-01-18T08:45:32.891Z,2.60
2023-01-18T08:48:00.752Z,2.60
2023-01-18T08:50:28.314Z,2.60
2023-01-18T08:52:55.382Z,2.60
2023-01-18T08:55:22.539Z,2.70
2023-01-18T08:57:49.614Z,2.70
2023-01-18T09:00:16.777Z,2.70
2023-01-18T09:02:43.817Z,2.80
2023-01-18T09:05:10.868Z,2.80
2023-01-18T09:07:37.878Z,2.90
2023-01-18T09:10:05.114Z,2.90
2023-01-18T09:12:34.667Z,2.90
2023-01-18T09:15:01.922Z,3.00
2023-01-18T09:17:28.910Z,3.10
2023-01-18T09:19:55.911Z,3.10
2023-01-18T09:22:24.083Z,3.20
2023-01-18T09:24:51.229Z,3.20
2023-01-18T09:27:18.246Z,3.30
2023-01-18T09:29:51.961Z,3.20
2023-01-18T09:32:19.917Z,3.20
2023-01-18T09:34:50.514Z,3.20
2023-01-18T09:37:17.917Z,3.10
2023-01-18T09:39:51.722Z,3.10
2023-01-18T09:42:20.971Z,3.20
2023-01-18T09:44:49.214Z,3.20
2023-01-18T09:47:26.509Z,3.20
2023-01-18T09:50:13.085Z,3.20
2023-01-18T09:52:46.161Z,3.20
2023-01-18T09:55:18.950Z,3.20
2023-01-18T09:57:46.241Z,3.20
2023-01-18T10:00:15.931Z,3.20
2023-01-18T10:02:42.927Z,3.20
2023-01-18T10:05:13.876Z,3.20
2023-01-18T10:07:48.841Z,3.10
2023-01-18T10:10:16.150Z,3.10
2023-01-18T10:13:09.635Z,3.10
2023-01-18T10:15:36.623Z,3.10
2023-01-18T10:18:03.647Z,3.00
2023-01-18T10:20:49.824Z,3.00
2023-01-18T10:23:19.816Z,3.00
2023-01-18T10:26:03.786Z,3.00
2023-01-18T10:28:51.097Z,3.00
2023-01-18T10:31:37.101Z,3.00
2023-01-18T10:34:10.803Z,3.00
2023-01-18T10:36:38.841Z,3.00
2023-01-18T10:39:07.080Z,3.00
2023-01-18T10:41:38.217Z,3.00
2023-01-18T10:44:05.200Z,3.00
2023-01-18T10:46:32.262Z,3.00
2023-01-18T10:48:59.291Z,3.00
2023-01-18T10:51:35.118Z,3.00
2023-01-18T10:54:17.685Z,3.00
2023-01-18T10:56:44.704Z,3.00
2023-01-18T10:59:34.942Z,3.00
2023-01-18T11:02:01.997Z,3.10
2023-01-18T11:04:29.377Z,3.10
2023-01-18T11:06:57.197Z,3.20
2023-01-18T11:09:45.713Z,3.20
2023-01-18T11:12:37.244Z,3.20
2023-01-18T11:15:13.684Z,3.20
2023-01-18T11:17:43.592Z,3.30
2023-01-18T11:20:15.904Z,3.20
2023-01-18T11:22:53.140Z,3.20
2023-01-18T11:25:20.116Z,3.20
2023-01-18T11:27:47.274Z,3.20
2023-01-18T11:30:21.359Z,3.10
2023-01-18T11:32:48.370Z,3.10
2023-01-18T11:35:21.472Z,3.10
2023-01-18T11:37:48.790Z,3.10
2023-01-18T11:40:18.810Z,3.10
2023-01-18T11:42:46.022Z,3.20
2023-01-18T11:45:12.965Z,3.20
2023-01-18T11:47:45.517Z,3.20
2023-01-18T11:50:22.150Z,3.10
2023-01-18T11:52:51.730Z,3.10
2023-01-18T11:55:21.339Z,3.10
2023-01-18T11:57:48.308Z,3.10
2023-01-18T12:00:15.586Z,3.00
2023-01-18T12:02:48.026Z,3.00
2023-01-18T12:05:15.151Z,3.00
2023-01-18T12:07:42.081Z,2.90
2023-01-18T12:10:10.402Z,2.90
2023-01-18T12:12:46.709Z,2.90
2023-01-18T12:15:13.732Z,3.00
2023-01-18T12:17:46.817Z,3.10
2023-01-18T12:20:20.934Z,3.20
2023-01-18T12:23:00.323Z,3.30
2023-01-18T12:25:33.289Z,3.40
2023-01-18T12:28:04.777Z,3.40
2023-01-18T12:30:48.439Z,3.30
2023-01-18T12:33:16.055Z,3.30
2023-01-18T12:35:52.116Z,3.30
2023-01-18T12:38:23.238Z,3.30
2023-01-18T12:41:11.041Z,3.20
2023-01-18T12:43:44.665Z,3.10
2023-01-18T12:46:15.075Z,3.00
2023-01-18T12:48:45.822Z,3.00
2023-01-18T12:51:13.821Z,2.90
2023-01-18T12:53:44.421Z,2.90
2023-01-18T12:56:15.614Z,2.80
2023-01-18T12:58:44.052Z,2.70
2023-01-18T13:01:12.714Z,2.60
2023-01-18T13:03:42.333Z,2.60
2023-01-18T13:06:11.085Z,2.50
2023-01-18T13:08:48.579Z,2.40
2023-01-18T13:11:35.495Z,2.40
2023-01-18T13:14:07.008Z,2.40
2023-01-18T13:16:40.428Z,2.30
2023-01-18T13:19:09.053Z,2.30
2023-01-18T13:21:45.178Z,2.30
2023-01-18T13:24:36.356Z,2.20
2023-01-18T13:27:14.302Z,2.10
2023-01-18T13:29:41.307Z,2.10
2023-01-18T13:32:27.657Z,2.00
2023-01-18T13:35:21.311Z,2.00
2023-01-18T13:37:49.178Z,1.90
2023-01-18T13:40:42.630Z,1.80
2023-01-18T13:43:28.506Z,1.80
2023-01-18T13:45:59.631Z,1.70
2023-01-18T13:48:45.698Z,1.70
2023-01-18T13:51:31.742Z,1.70
2023-01-18T13:53:58.763Z,1.80
2023-01-18T13:56:27.464Z,1.80
2023-01-18T13:58:55.615Z,1.80
2023-01-18T14:01:28.249Z,1.90
2023-01-18T14:03:55.379Z,1.80
2023-01-18T14:06:32.385Z,1.80
2023-01-18T14:09:05.229Z,1.80
2023-01-18T14:11:34.286Z,1.80
2023-01-18T14:14:02.416Z,1.80
2023-01-18T14:16:36.793Z,1.80
2023-01-18T14:19:17.340Z,1.70
2023-01-18T14:22:00.318Z,1.70
2023-01-18T14:24:36.678Z,1.70
2023-01-18T14:27:03.704Z,1.70
2023-01-18T14:29:40.533Z,1.60
2023-01-18T14:32:07.798Z,1.60
2023-01-18T14:34:36.202Z,1.60
2023-01-18T14:37:03.801Z,1.60
2023-01-18T14:39:33.096Z,1.60
2023-01-18T14:42:01.785Z,1.60
2023-01-18T14:44:40.738Z,1.60
2023-01-18T14:47:23.850Z,1.60
2023-01-18T14:49:51.166Z,1.60
2023-01-18T14:52:18.289Z,1.50
2023-01-18T14:54:52.335Z,1.50
2023-01-18T14:57:20.361Z,1.50
2023-01-18T15:00:13.822Z,1.50
2023-01-18T15:02:41.002Z,1.50
2023-01-18T15:05:14.440Z,1.50
2023-01-18T15:07:41.492Z,1.50
2023-01-18T15:10:08.788Z,1.50
2023-01-18T15:12:36.061Z,1.50
2023-01-18T15:15:09.857Z,1.50
2023-01-18T15:17:37.127Z,1.50
2023-01-18T15:20:31.552Z,1.50
2023-01-18T15:22:59.252Z,1.50
2023-01-18T15:25:27.239Z,1.40
2023-01-18T15:27:54.269Z,1.40
2023-01-18T15:30:24.453Z,1.40
2023-01-18T15:32:54.157Z,1.40
2023-01-18T15:35:21.286Z,1.30
2023-01-18T15:37:48.346Z,1.30
2023-01-18T15:40:15.508Z,1.30
2023-01-18T15:42:46.710Z,1.30
2023-01-18T15:45:17.991Z,1.30
2023-01-18T15:47:48.727Z,1.20
2023-01-18T15:50:16.705Z,1.20
2023-01-18T15:52:47.720Z,1.20
2023-01-18T15:55:33.944Z,1.20
2023-01-18T15:58:02.029Z,1.20
2023-01-18T16:00:34.014Z,1.20
2023-01-18T16:03:03.075Z,1.20
2023-01-18T16:05:32.278Z,1.10
2023-01-18T16:08:16.359Z,1.10
2023-01-18T16:10:47.479Z,1.10
2023-01-18T16:13:21.535Z,1.10
2023-01-18T16:16:06.881Z,1.10
2023-01-18T16:18:34.212Z,1.10
2023-01-18T16:21:01.258Z,1.10
2023-01-18T16:23:28.290Z,1.10
2023-01-18T16:26:02.049Z,1.10
2023-01-18T16:28:29.027Z,1.00
2023-01-18T16:30:56.090Z,1.00
2023-01-18T16:33:23.702Z,1.00
2023-01-18T16:35:50.812Z,1.00
2023-01-18T16:38:18.330Z,1.00
2023-01-18T16:40:45.949Z,0.90
2023-01-18T16:43:16.112Z,1.00
2023-01-18T16:45:43.283Z,0.90
2023-01-18T16:48:13.731Z,1.00
2023-01-18T16:50:40.793Z,1.00
2023-01-18T16:53:08.398Z,1.00
2023-01-18T16:55:35.923Z,1.00
2023-01-18T16:58:02.976Z,0.90
2023-01-18T17:00:33.627Z,1.00
2023-01-18T17:03:00.678Z,0.90
2023-01-18T17:05:28.217Z,0.90
2023-01-18T17:07:55.267Z,0.90
2023-01-18T17:10:42.471Z,0.90
2023-01-18T17:13:09.763Z,0.90
2023-01-18T17:15:40.629Z,0.90
2023-01-18T17:18:12.380Z,0.90
2023-01-18T17:20:39.430Z,0.90
2023-01-18T17:23:06.470Z,0.90
2023-01-18T17:25:33.438Z,0.90
2023-01-18T17:28:00.905Z,0.90
2023-01-18T17:30:28.447Z,0.90
2023-01-18T17:32:55.400Z,0.90
2023-01-18T17:35:22.855Z,0.90
2023-01-18T17:37:54.505Z,0.90
2023-01-18T17:40:39.403Z,0.90
2023-01-18T17:43:10.687Z,0.90
2023-01-18T17:45:37.660Z,0.90
2023-01-18T17:48:04.817Z,0.90
2023-01-18T17:50:31.806Z,0.80
2023-01-18T17:52:59.109Z,0.90
2023-01-18T17:55:34.215Z,0.90
2023-01-18T17:58:01.962Z,0.90
2023-01-18T18:00:28.966Z,0.90
2023-01-18T18:02:57.372Z,0.90
2023-01-18T18:05:24.418Z,0.90
2023-01-18T18:07:51.484Z,0.90
2023-01-18T18:10:18.690Z,0.90
2023-01-18T18:12:45.756Z,0.90
2023-01-18T18:15:13.378Z,0.90
2023-01-18T18:17:40.493Z,0.90
2023-01-18T18:20:10.670Z,0.90
2023-01-18T18:22:38.283Z,0.90
2023-01-18T18:25:06.546Z,0.90
2023-01-18T18:27:44.826Z,0.90
2023-01-18T18:30:12.855Z,0.90
2023-01-18T18:32:39.902Z,0.90
2023-01-18T18:35:23.245Z,0.80
2023-01-18T18:37:52.087Z,0.90
2023-01-18T18:40:19.158Z,0.90
2023-01-18T18:42:56.510Z,0.90
2023-01-18T18:45:28.102Z,0.80
2023-01-18T18:47:55.080Z,0.80
2023-01-18T18:50:22.089Z,0.80
2023-01-18T18:52:49.108Z,0.80
2023-01-18T18:55:16.081Z,0.80
2023-01-18T18:57:43.096Z,0.80
2023-01-18T19:00:10.375Z,0.80
2023-01-18T19:02:37.425Z,0.80
2023-01-18T19:05:04.686Z,0.80
2023-01-18T19:07:33.599Z,0.80
2023-01-18T19:10:00.571Z,0.80
2023-01-18T19:12:27.552Z,0.80
2023-01-18T19:14:54.533Z,0.80
2023-01-18T19:17:30.461Z,0.80
2023-01-18T19:19:58.344Z,0.80
2023-01-18T19:22:25.375Z,0.70
2023-01-18T19:24:52.367Z,0.70
2023-01-18T19:27:21.047Z,0.70
2023-01-18T19:29:48.108Z,0.70
2023-01-18T19:32:15.451Z,0.70
2023-01-18T19:34:42.475Z,0.70
2023-01-18T19:37:09.447Z,0.70
2023-01-18T19:39:36.487Z,0.60
2023-01-18T19:42:03.519Z,0.60
2023-01-18T19:44:30.496Z,0.60
2023-01-18T19:46:57.529Z,0.60
2023-01-18T19:49:27.601Z,0.60
2023-01-18T19:51:54.844Z,0.60
2023-01-18T19:54:22.173Z,0.60
2023-01-18T19:56:49.424Z,0.60
2023-01-18T19:59:16.405Z,0.50
2023-01-18T20:01:43.625Z,0.50
2023-01-18T20:04:12.904Z,0.50
2023-01-18T20:06:40.694Z,0.60
2023-01-18T20:09:18.571Z,0.50
2023-01-18T20:11:46.340Z,0.50
2023-01-18T20:14:13.313Z,0.50
2023-01-18T20:16:40.398Z,0.60
2023-01-18T20:19:07.451Z,0.60
2023-01-18T20:21:34.598Z,0.60
2023-01-18T20:24:01.587Z,0.60
2023-01-18T20:26:36.739Z,0.60
2023-01-18T20:29:06.591Z,0.60
2023-01-18T20:31:37.174Z,0.60
2023-01-18T20:34:04.561Z,0.60
2023-01-18T20:36:31.612Z,0.60
2023-01-18T20:38:58.597Z,0.60
2023-01-18T20:41:25.573Z,0.60
2023-01-18T20:43:52.646Z,0.60
2023-01-18T20:46:19.665Z,0.60
2023-01-18T20:48:46.653Z,0.60
2023-01-18T20:51:13.655Z,0.60
2023-01-18T20:53:40.695Z,0.60
2023-01-18T20:56:11.963Z,0.60
2023-01-18T20:58:53.231Z,0.60
2023-01-18T21:01:20.355Z,0.50
2023-01-18T21:03:51.509Z,0.50
2023-01-18T21:06:18.696Z,0.50
2023-01-18T21:08:45.671Z,0.50
2023-01-18T21:11:13.086Z,0.50
2023-01-18T21:13:40.101Z,0.50
2023-01-18T21:16:07.170Z,0.50
2023-01-18T21:18:34.340Z,0.50
2023-01-18T21:21:01.301Z,0.50
2023-01-18T21:23:28.370Z,0.40
2023-01-18T21:25:58.569Z,0.40
2023-01-18T21:28:25.671Z,0.40
2023-01-18T21:30:53.133Z,0.50
2023-01-18T21:33:20.148Z,0.40
2023-01-18T21:35:47.127Z,0.40
2023-01-18T21:38:14.115Z,0.40
2023-01-18T21:40:41.239Z,0.40
2023-01-18T21:43:28.527Z,0.40
2023-01-18T21:45:55.527Z,0.40
2023-01-18T21:48:22.854Z,0.40
2023-01-18T21:51:08.670Z,0.40
2023-01-18T21:53:54.532Z,0.40
2023-01-18T21:56:21.603Z,0.30
2023-01-18T21:58:54.983Z,0.30
2023-01-18T22:01:23.246Z,0.30
2023-01-18T22:04:09.244Z,0.30
2023-01-18T22:06:36.347Z,0.30
2023-01-18T22:09:06.497Z,0.30
2023-01-18T22:11:33.709Z,0.30
2023-01-18T22:14:01.589Z,0.30
2023-01-18T22:16:30.586Z,0.30
2023-01-18T22:18:58.312Z,0.30
2023-01-18T22:21:25.408Z,0.30
2023-01-18T22:23:52.622Z,0.30
2023-01-18T22:26:23.075Z,0.20
2023-01-18T22:28:50.086Z,0.20
2023-01-18T22:31:17.188Z,0.20
2023-01-18T22:33:45.359Z,0.30
2023-01-18T22:36:12.476Z,0.20
2023-01-18T22:38:39.488Z,0.20
2023-01-18T22:41:06.548Z,0.20
2023-01-18T22:43:33.823Z,0.20
2023-01-18T22:46:00.799Z,0.20
2023-01-18T22:48:27.832Z,0.20
2023-01-18T22:50:55.056Z,0.20
2023-01-18T22:53:22.139Z,0.10
2023-01-18T22:55:49.434Z,0.10
2023-01-18T22:58:16.513Z,0.20
2023-01-18T23:00:43.934Z,0.20
2023-01-18T23:03:10.927Z,0.10
2023-01-18T23:05:37.956Z,0.10
2023-01-18T23:08:05.383Z,0.10
2023-01-18T23:10:32.567Z,0.10
2023-01-18T23:12:59.531Z,0.10
2023-01-18T23:15:45.290Z,0.10
2023-01-18T23:18:12.282Z,0.10
2023-01-18T23:20:39.246Z,0.10
2023-01-18T23:23:06.299Z,0.10
2023-01-18T23:25:33.654Z,0.10
2023-01-18T23:28:03.395Z,0.10
2023-01-18T23:30:32.009Z,0.10
2023-01-18T23:32:59.159Z,0.10
2023-01-18T23:35:26.126Z,0.00
2023-01-18T23:37:54.260Z,0.00
2023-01-18T23:40:40.083Z,0.00
2023-01-18T23:43:25.863Z,0.00
2023-01-18T23:46:11.605Z,0.00
2023-01-18T23:48:57.367Z,0.00
2023-01-18T23:51:43.175Z,0.00
2023-01-18T23:54:16.672Z,0.00
2023-01-18T23:56:43.815Z,0.00
2023-01-18T23:59:10.828Z,0.00
